createdAt,value
2016-12-19T00:00:53.052Z,964.11
2016-12-19T00:01:53.067Z,964.08
2016-12-19T00:02:53.080Z,964.12
2016-12-19T00:03:53.094Z,964.09
2016-12-19T00:04:53.107Z,964.11
2016-12-19T00:05:53.122Z,964.11
2016-12-19T00:06:53.137Z,964.11
2016-12-19T00:07:53.152Z,964.13
2016-12-19T00:08:53.165Z,964.11
2016-12-19T00:09:53.180Z,964.11
2016-12-19T00:10:53.194Z,964.11
2016-12-19T00:11:53.206Z,964.1
2016-12-19T00:12:53.227Z,964.09
2016-12-19T00:13:53.235Z,964.09
2016-12-19T00:14:53.250Z,964.1
2016-12-19T00:15:53.263Z,964.08
2016-12-19T00:16:53.277Z,964.04
2016-12-19T00:17:53.292Z,964.08
2016-12-19T00:18:53.307Z,964.04
2016-12-19T00:19:53.321Z,964.03
2016-12-19T00:20:53.336Z,964.05
2016-12-19T00:21:53.350Z,964.02
2016-12-19T00:22:53.364Z,964.03
2016-12-19T00:23:53.378Z,964.01
2016-12-19T00:24:53.392Z,964.01
2016-12-19T00:25:53.407Z,964
2016-12-19T00:26:53.420Z,963.95
2016-12-19T00:27:53.449Z,964.02
2016-12-19T00:28:53.449Z,964
2016-12-19T00:29:53.462Z,964.02
2016-12-19T00:30:53.476Z,964
2016-12-19T00:31:53.492Z,963.99
2016-12-19T00:32:53.505Z,964.01
2016-12-19T00:33:53.519Z,964.02
2016-12-19T00:34:53.534Z,964.06
2016-12-19T00:35:53.546Z,964.03
2016-12-19T00:36:53.561Z,964.02
2016-12-19T00:37:53.575Z,964.02
2016-12-19T00:38:53.590Z,964.06
2016-12-19T00:39:53.604Z,964.04
2016-12-19T00:40:53.616Z,964.05
2016-12-19T00:41:53.639Z,964.05
2016-12-19T00:42:53.645Z,964.04
2016-12-19T00:44:53.674Z,964.03
2016-12-19T00:45:53.687Z,964.05
2016-12-19T00:46:53.702Z,964.03
2016-12-19T00:47:53.716Z,964.08
2016-12-19T00:48:53.730Z,964.06
2016-12-19T00:49:53.744Z,964.04
2016-12-19T00:50:53.758Z,964.02
2016-12-19T00:51:53.771Z,964.03
2016-12-19T00:52:53.786Z,964.03
2016-12-19T00:53:53.800Z,963.99
2016-12-19T00:54:53.815Z,963.97
2016-12-19T00:55:53.828Z,964
2016-12-19T00:56:53.862Z,963.99
2016-12-19T00:57:53.857Z,963.98
2016-12-19T00:58:53.872Z,964
2016-12-19T00:59:53.884Z,963.99
2016-12-19T01:00:53.899Z,963.97
2016-12-19T01:01:53.913Z,963.96
2016-12-19T01:02:53.927Z,963.93
2016-12-19T01:03:54.065Z,963.9
2016-12-19T01:04:53.955Z,963.92
2016-12-19T01:05:53.969Z,963.9
2016-12-19T01:06:53.983Z,963.87
2016-12-19T01:07:53.997Z,963.91
2016-12-19T01:08:54.012Z,963.92
2016-12-19T01:09:54.026Z,963.95
2016-12-19T01:10:54.052Z,963.94
2016-12-19T01:11:54.053Z,963.97
2016-12-19T01:12:54.068Z,964.03
2016-12-19T01:13:54.081Z,964
2016-12-19T01:14:54.096Z,963.98
2016-12-19T01:15:54.312Z,964
2016-12-19T01:16:54.125Z,963.99
2016-12-19T01:17:54.137Z,964.01
2016-12-19T01:18:54.151Z,964.03
2016-12-19T01:19:54.169Z,964.02
2016-12-19T01:20:54.180Z,964
2016-12-19T01:21:54.194Z,963.99
2016-12-19T01:22:54.208Z,964.01
2016-12-19T01:23:54.222Z,963.99
2016-12-19T01:24:54.246Z,963.99
2016-12-19T01:25:54.250Z,963.99
2016-12-19T01:26:54.265Z,963.97
2016-12-19T01:27:54.278Z,963.94
2016-12-19T01:28:54.292Z,963.99
2016-12-19T01:29:54.304Z,963.96
2016-12-19T01:30:54.321Z,963.89
2016-12-19T01:31:54.334Z,963.93
2016-12-19T01:32:54.356Z,963.93
2016-12-19T01:33:54.362Z,963.9
2016-12-19T01:34:54.376Z,963.9
2016-12-19T01:35:54.389Z,963.86
2016-12-19T01:36:54.404Z,963.89
2016-12-19T01:37:54.418Z,963.9
2016-12-19T01:38:54.432Z,963.85
2016-12-19T01:39:54.465Z,963.82
2016-12-19T01:40:54.459Z,963.85
2016-12-19T01:41:54.474Z,963.77
2016-12-19T01:42:54.488Z,963.76
2016-12-19T01:43:54.501Z,963.7
2016-12-19T01:44:54.519Z,963.69
2016-12-19T01:45:54.531Z,963.65
2016-12-19T01:46:54.545Z,963.63
2016-12-19T01:47:54.556Z,963.67
2016-12-19T01:48:54.571Z,963.61
2016-12-19T01:49:54.586Z,963.6
2016-12-19T01:50:54.599Z,963.63
2016-12-19T01:51:54.613Z,963.65
2016-12-19T01:52:54.627Z,963.62
2016-12-19T01:53:54.641Z,963.64
2016-12-19T01:54:54.663Z,963.66
2016-12-19T01:55:54.674Z,963.63
2016-12-19T01:56:54.684Z,963.71
2016-12-19T01:57:54.697Z,963.66
2016-12-19T01:58:54.713Z,963.67
2016-12-19T01:59:54.727Z,963.68
2016-12-19T02:00:54.740Z,963.69
2016-12-19T02:01:54.752Z,963.65
2016-12-19T02:02:54.767Z,963.61
2016-12-19T02:03:54.781Z,963.67
2016-12-19T02:04:54.794Z,963.61
2016-12-19T02:05:54.808Z,963.6
2016-12-19T02:06:54.823Z,963.57
2016-12-19T02:07:54.837Z,963.58
2016-12-19T02:08:54.850Z,963.56
2016-12-19T02:09:54.864Z,963.55
2016-12-19T02:10:54.878Z,963.57
2016-12-19T02:11:54.892Z,963.52
2016-12-19T02:12:54.905Z,963.54
2016-12-19T02:13:54.919Z,963.49
2016-12-19T02:14:54.934Z,963.48
2016-12-19T02:15:54.948Z,963.44
2016-12-19T02:16:54.960Z,963.44
2016-12-19T02:17:54.975Z,963.37
2016-12-19T02:18:54.989Z,963.33
2016-12-19T02:19:55.002Z,963.32
2016-12-19T02:20:55.017Z,963.27
2016-12-19T02:21:55.030Z,963.29
2016-12-19T02:22:55.045Z,963.27
2016-12-19T02:23:55.057Z,963.26
2016-12-19T02:24:55.072Z,963.26
2016-12-19T02:25:55.086Z,963.27
2016-12-19T02:26:55.099Z,963.23
2016-12-19T02:27:55.113Z,963.24
2016-12-19T02:28:55.126Z,963.25
2016-12-19T02:29:55.141Z,963.17
2016-12-19T02:30:55.169Z,963.16
2016-12-19T02:31:55.168Z,963.16
2016-12-19T02:32:55.182Z,963.13
2016-12-19T02:33:55.196Z,963.14
2016-12-19T02:34:55.209Z,963.15
2016-12-19T02:35:55.224Z,963.06
2016-12-19T02:36:55.237Z,963.12
2016-12-19T02:37:55.251Z,963.09
2016-12-19T02:38:55.265Z,963.1
2016-12-19T02:39:55.281Z,963.06
2016-12-19T02:40:55.291Z,963.07
2016-12-19T02:41:55.306Z,963.05
2016-12-19T02:42:55.320Z,963.03
2016-12-19T02:43:55.334Z,963.04
2016-12-19T02:44:55.357Z,963.03
2016-12-19T02:45:55.361Z,962.98
2016-12-19T02:46:55.375Z,963.05
2016-12-19T02:47:55.390Z,963.04
2016-12-19T02:48:55.411Z,963.02
2016-12-19T02:49:55.416Z,962.99
2016-12-19T02:50:55.429Z,963.03
2016-12-19T02:51:55.445Z,962.97
2016-12-19T02:52:55.457Z,962.98
2016-12-19T02:53:55.472Z,963.01
2016-12-19T02:54:55.487Z,962.99
2016-12-19T02:55:55.500Z,962.98
2016-12-19T02:56:55.513Z,962.93
2016-12-19T02:57:55.527Z,962.97
2016-12-19T02:58:55.541Z,962.95
2016-12-19T02:59:55.554Z,962.96
2016-12-19T03:00:55.569Z,962.94
2016-12-19T03:01:55.582Z,962.89
2016-12-19T03:02:55.603Z,962.84
2016-12-19T03:03:55.610Z,962.82
2016-12-19T03:04:55.631Z,962.78
2016-12-19T03:05:55.637Z,962.82
2016-12-19T03:06:55.659Z,962.81
2016-12-19T03:07:55.665Z,962.78
2016-12-19T03:08:55.678Z,962.79
2016-12-19T03:09:55.692Z,962.81
2016-12-19T03:10:55.706Z,962.83
2016-12-19T03:11:55.721Z,962.83
2016-12-19T03:12:55.755Z,962.83
2016-12-19T03:13:55.767Z,962.81
2016-12-19T03:14:55.772Z,962.81
2016-12-19T03:15:55.774Z,962.77
2016-12-19T03:16:55.795Z,962.75
2016-12-19T03:17:55.802Z,962.75
2016-12-19T03:18:55.815Z,962.75
2016-12-19T03:19:55.829Z,962.74
2016-12-19T03:20:55.856Z,962.73
2016-12-19T03:21:55.857Z,962.76
2016-12-19T03:22:55.870Z,962.78
2016-12-19T03:23:55.883Z,962.76
2016-12-19T03:24:55.907Z,962.75
2016-12-19T03:25:55.911Z,962.74
2016-12-19T03:26:55.935Z,962.71
2016-12-19T03:27:55.939Z,962.73
2016-12-19T03:28:55.953Z,962.68
2016-12-19T03:29:55.967Z,962.64
2016-12-19T03:30:55.981Z,962.58
2016-12-19T03:31:55.995Z,962.57
2016-12-19T03:32:56.008Z,962.54
2016-12-19T03:33:56.021Z,962.54
2016-12-19T03:34:56.036Z,962.5
2016-12-19T03:35:56.057Z,962.49
2016-12-19T03:36:56.063Z,962.44
2016-12-19T03:37:56.076Z,962.46
2016-12-19T03:38:56.092Z,962.42
2016-12-19T03:39:56.105Z,962.4
2016-12-19T03:40:56.118Z,962.34
2016-12-19T03:41:56.133Z,962.37
2016-12-19T03:42:56.147Z,962.39
2016-12-19T03:43:56.159Z,962.37
2016-12-19T03:44:56.175Z,962.35
2016-12-19T03:45:56.188Z,962.3
2016-12-19T03:46:56.211Z,962.24
2016-12-19T03:47:56.215Z,962.2
2016-12-19T03:48:56.230Z,962.15
2016-12-19T03:49:56.247Z,962.15
2016-12-19T03:50:56.257Z,962.07
2016-12-19T03:51:56.270Z,962.11
2016-12-19T03:52:56.285Z,962.12
2016-12-19T03:53:56.299Z,962.09
2016-12-19T03:54:56.312Z,962.08
2016-12-19T03:55:56.326Z,962.16
2016-12-19T03:56:56.347Z,962.16
2016-12-19T03:57:56.355Z,962.16
2016-12-19T03:58:56.368Z,962.15
2016-12-19T03:59:56.382Z,962.15
2016-12-19T04:00:56.400Z,962.12
2016-12-19T04:01:56.410Z,962.12
2016-12-19T04:02:56.424Z,962.11
2016-12-19T04:03:56.437Z,962.13
2016-12-19T04:04:56.471Z,962.09
2016-12-19T04:05:56.465Z,962.1
2016-12-19T04:06:56.478Z,962.1
2016-12-19T04:07:56.492Z,962.07
2016-12-19T04:08:56.509Z,962.1
2016-12-19T04:09:56.519Z,962.12
2016-12-19T04:10:56.533Z,962.13
2016-12-19T04:11:56.549Z,962.11
2016-12-19T04:12:56.561Z,962.12
2016-12-19T04:13:56.575Z,962.09
2016-12-19T04:14:56.588Z,962.11
2016-12-19T04:15:56.604Z,962.12
2016-12-19T04:16:56.615Z,962.07
2016-12-19T04:17:56.629Z,962.07
2016-12-19T04:18:56.660Z,962.09
2016-12-19T04:19:56.659Z,962.07
2016-12-19T04:20:56.671Z,962.04
2016-12-19T04:21:56.686Z,962.05
2016-12-19T04:22:56.698Z,962.04
2016-12-19T04:23:56.713Z,962.01
2016-12-19T04:24:56.726Z,962.03
2016-12-19T04:25:56.741Z,961.99
2016-12-19T04:26:56.755Z,962.03
2016-12-19T04:27:56.767Z,961.99
2016-12-19T04:28:56.781Z,961.99
2016-12-19T04:29:56.795Z,961.98
2016-12-19T04:30:56.809Z,961.99
2016-12-19T04:31:56.822Z,962
2016-12-19T04:32:56.835Z,962.01
2016-12-19T04:33:56.850Z,962
2016-12-19T04:34:56.863Z,962.06
2016-12-19T04:35:56.877Z,962
2016-12-19T04:36:56.891Z,961.98
2016-12-19T04:37:56.905Z,961.94
2016-12-19T04:38:56.918Z,961.99
2016-12-19T04:39:56.932Z,961.97
2016-12-19T04:40:56.949Z,961.96
2016-12-19T04:41:56.959Z,961.9
2016-12-19T04:42:56.972Z,961.93
2016-12-19T04:43:56.988Z,961.91
2016-12-19T04:44:57.000Z,961.93
2016-12-19T04:45:57.013Z,961.96
2016-12-19T04:46:57.027Z,961.91
2016-12-19T04:47:57.043Z,961.91
2016-12-19T04:48:57.055Z,961.9
2016-12-19T04:49:57.067Z,961.9
2016-12-19T04:50:57.082Z,961.87
2016-12-19T04:51:57.096Z,961.85
2016-12-19T04:52:57.111Z,961.89
2016-12-19T04:53:57.122Z,961.88
2016-12-19T04:54:57.138Z,961.93
2016-12-19T04:55:57.151Z,961.88
2016-12-19T04:56:57.164Z,961.95
2016-12-19T04:57:57.183Z,961.96
2016-12-19T04:58:57.190Z,961.91
2016-12-19T04:59:57.206Z,961.89
2016-12-19T05:00:57.219Z,961.84
2016-12-19T05:01:57.233Z,961.95
2016-12-19T05:02:57.247Z,961.87
2016-12-19T05:03:57.261Z,961.84
2016-12-19T05:04:57.275Z,961.88
2016-12-19T05:05:57.288Z,961.81
2016-12-19T05:06:57.303Z,961.81
2016-12-19T05:07:57.316Z,961.78
2016-12-19T05:08:57.331Z,961.82
2016-12-19T05:09:57.361Z,961.81
2016-12-19T05:10:57.360Z,961.8
2016-12-19T05:11:57.372Z,961.8
2016-12-19T05:12:57.385Z,961.83
2016-12-19T05:13:57.400Z,961.81
2016-12-19T05:14:57.412Z,961.82
2016-12-19T05:15:57.428Z,961.81
2016-12-19T05:16:57.441Z,961.84
2016-12-19T05:17:57.454Z,961.82
2016-12-19T05:18:57.467Z,961.86
2016-12-19T05:19:57.481Z,961.86
2016-12-19T05:20:57.495Z,961.89
2016-12-19T05:21:57.509Z,961.91
2016-12-19T05:22:57.523Z,961.92
2016-12-19T05:23:57.552Z,961.93
2016-12-19T05:24:57.549Z,961.93
2016-12-19T05:25:57.564Z,961.97
2016-12-19T05:26:57.577Z,961.95
2016-12-19T05:27:57.590Z,961.96
2016-12-19T05:28:57.605Z,962
2016-12-19T05:29:57.617Z,961.95
2016-12-19T05:30:57.636Z,961.96
2016-12-19T05:31:57.646Z,961.95
2016-12-19T05:32:57.658Z,962.01
2016-12-19T05:33:57.672Z,961.94
2016-12-19T05:34:57.686Z,961.84
2016-12-19T05:35:57.700Z,961.89
2016-12-19T05:36:57.714Z,961.97
2016-12-19T05:37:57.727Z,961.93
2016-12-19T05:38:57.741Z,961.91
2016-12-19T05:39:57.758Z,961.94
2016-12-19T05:40:57.768Z,961.97
2016-12-19T05:41:57.782Z,961.9
2016-12-19T05:42:57.796Z,961.95
2016-12-19T05:43:57.810Z,961.92
2016-12-19T05:44:57.823Z,961.88
2016-12-19T05:45:57.840Z,961.92
2016-12-19T05:46:57.851Z,961.92
2016-12-19T05:47:57.864Z,961.9
2016-12-19T05:48:57.877Z,961.91
2016-12-19T05:49:57.892Z,961.99
2016-12-19T05:50:57.905Z,961.87
2016-12-19T05:51:57.918Z,961.9
2016-12-19T05:52:57.933Z,961.94
2016-12-19T05:53:57.946Z,961.91
2016-12-19T05:54:57.960Z,961.94
2016-12-19T05:55:57.978Z,961.91
2016-12-19T05:56:57.986Z,961.89
2016-12-19T05:57:58.000Z,961.86
2016-12-19T05:58:58.013Z,961.84
2016-12-19T05:59:58.029Z,961.87
2016-12-19T06:00:58.041Z,961.9
2016-12-19T06:01:58.055Z,961.84
2016-12-19T06:02:58.068Z,961.92
2016-12-19T06:03:58.082Z,961.84
2016-12-19T06:04:58.096Z,961.83
2016-12-19T06:05:58.110Z,961.8
2016-12-19T06:06:58.122Z,961.74
2016-12-19T06:07:58.158Z,961.74
2016-12-19T06:08:58.151Z,961.68
2016-12-19T06:09:58.163Z,961.62
2016-12-19T06:10:58.177Z,961.63
2016-12-19T06:11:58.193Z,961.58
2016-12-19T06:12:58.207Z,961.58
2016-12-19T06:13:58.218Z,961.57
2016-12-19T06:14:58.251Z,961.54
2016-12-19T06:15:58.247Z,961.54
2016-12-19T06:16:58.261Z,961.55
2016-12-19T06:17:58.273Z,961.52
2016-12-19T06:18:58.288Z,961.53
2016-12-19T06:19:58.302Z,961.53
2016-12-19T06:20:58.314Z,961.49
2016-12-19T06:21:58.331Z,961.45
2016-12-19T06:22:58.342Z,961.4
2016-12-19T06:23:58.356Z,961.44
2016-12-19T06:24:58.369Z,961.42
2016-12-19T06:25:58.382Z,961.4
2016-12-19T06:26:58.397Z,961.41
2016-12-19T06:27:58.411Z,961.39
2016-12-19T06:28:58.440Z,961.37
2016-12-19T06:29:58.437Z,961.4
2016-12-19T06:30:58.451Z,961.37
2016-12-19T06:31:58.464Z,961.4
2016-12-19T06:32:58.478Z,961.38
2016-12-19T06:33:58.491Z,961.38
2016-12-19T06:34:58.505Z,961.35
2016-12-19T06:35:58.520Z,961.38
2016-12-19T06:36:58.533Z,961.34
2016-12-19T06:37:58.546Z,961.29
2016-12-19T06:38:58.560Z,961.29
2016-12-19T06:39:58.574Z,961.27
2016-12-19T06:40:58.588Z,961.28
2016-12-19T06:41:58.605Z,961.31
2016-12-19T06:42:58.614Z,961.28
2016-12-19T06:43:58.629Z,961.33
2016-12-19T06:44:58.643Z,961.35
2016-12-19T06:45:58.657Z,961.29
2016-12-19T06:46:58.671Z,961.3
2016-12-19T06:47:58.684Z,961.34
2016-12-19T06:48:58.698Z,961.27
2016-12-19T06:49:58.711Z,961.28
2016-12-19T06:50:58.729Z,961.29
2016-12-19T06:51:58.740Z,961.25
2016-12-19T06:52:58.754Z,961.24
2016-12-19T06:53:58.766Z,961.25
2016-12-19T06:54:58.782Z,961.23
2016-12-19T06:55:58.794Z,961.23
2016-12-19T06:56:58.808Z,961.33
2016-12-19T06:57:58.821Z,961.25
2016-12-19T06:58:58.836Z,961.19
2016-12-19T06:59:58.849Z,961.25
2016-12-19T07:00:58.862Z,961.17
2016-12-19T07:01:58.876Z,961.17
2016-12-19T07:02:58.890Z,961.18
2016-12-19T07:03:58.905Z,961.16
2016-12-19T07:04:58.920Z,961.17
2016-12-19T07:05:58.931Z,961.17
2016-12-19T07:06:58.945Z,961.12
2016-12-19T07:07:58.960Z,961.08
2016-12-19T07:08:58.972Z,961.09
2016-12-19T07:09:58.989Z,961.11
2016-12-19T07:10:59.001Z,961.11
2016-12-19T07:11:59.014Z,961.06
2016-12-19T07:12:59.028Z,961.05
2016-12-19T07:13:59.043Z,961.07
2016-12-19T07:14:59.058Z,961.02
2016-12-19T07:15:59.068Z,961.03
2016-12-19T07:16:59.083Z,961.03
2016-12-19T07:17:59.097Z,961.12
2016-12-19T07:18:59.112Z,961.05
2016-12-19T07:19:59.143Z,960.99
2016-12-19T07:20:59.139Z,961.08
2016-12-19T07:21:59.153Z,961.06
2016-12-19T07:22:59.167Z,961.1
2016-12-19T07:23:59.181Z,961.02
2016-12-19T07:24:59.196Z,961.07
2016-12-19T07:25:59.208Z,961.07
2016-12-19T07:26:59.222Z,961.07
2016-12-19T07:27:59.237Z,961.13
2016-12-19T07:28:59.251Z,961.15
2016-12-19T07:29:59.264Z,961.16
2016-12-19T07:30:59.278Z,961.19
2016-12-19T07:31:59.292Z,961.18
2016-12-19T07:32:59.306Z,961.19
2016-12-19T07:33:59.333Z,961.19
2016-12-19T07:34:59.332Z,961.23
2016-12-19T07:35:59.348Z,961.18
2016-12-19T07:36:59.362Z,961.22
2016-12-19T07:37:59.375Z,961.26
2016-12-19T07:38:59.388Z,961.27
2016-12-19T07:39:59.402Z,961.2
2016-12-19T07:40:59.418Z,961.23
2016-12-19T07:41:59.432Z,961.19
2016-12-19T07:42:59.445Z,961.23
2016-12-19T07:43:59.459Z,961.2
2016-12-19T07:44:59.473Z,961.2
2016-12-19T07:45:59.488Z,961.2
2016-12-19T07:46:59.501Z,961.23
2016-12-19T07:47:59.515Z,961.18
2016-12-19T07:48:59.529Z,961.16
2016-12-19T07:49:59.543Z,961.09
2016-12-19T07:50:59.556Z,961.12
2016-12-19T07:51:59.571Z,961.16
2016-12-19T07:52:59.583Z,961.17
2016-12-19T07:53:59.598Z,961.16
2016-12-19T07:54:59.613Z,961.2
2016-12-19T07:55:59.625Z,961.15
2016-12-19T07:56:59.639Z,961.16
2016-12-19T07:57:59.653Z,961.16
2016-12-19T07:58:59.667Z,961.21
2016-12-19T07:59:59.681Z,961.19
2016-12-19T08:00:59.697Z,961.12
2016-12-19T08:01:59.710Z,961.2
2016-12-19T08:02:59.746Z,961.2
2016-12-19T08:03:59.736Z,961.11
2016-12-19T08:04:59.751Z,961.19
2016-12-19T08:05:59.765Z,961.16
2016-12-19T08:06:59.777Z,961.15
2016-12-19T08:07:59.794Z,961.17
2016-12-19T08:08:59.806Z,961.15
2016-12-19T08:09:59.823Z,961.19
2016-12-19T08:10:59.834Z,961.14
2016-12-19T08:11:59.849Z,961.16
2016-12-19T08:12:59.862Z,961.19
2016-12-19T08:13:59.876Z,961.18
2016-12-19T08:14:59.890Z,961.15
2016-12-19T08:16:00.019Z,961.18
2016-12-19T08:17:00.010Z,961.18
2016-12-19T08:17:59.932Z,961.2
2016-12-19T08:18:59.946Z,961.23
2016-12-19T08:19:59.961Z,961.25
2016-12-19T08:20:59.975Z,961.26
2016-12-19T08:21:59.991Z,961.23
2016-12-19T08:23:00.003Z,961.22
2016-12-19T08:24:00.016Z,961.26
2016-12-19T08:25:00.235Z,961.24
2016-12-19T08:26:00.044Z,961.27
2016-12-19T08:27:00.061Z,961.21
2016-12-19T08:28:00.072Z,961.25
2016-12-19T08:29:00.088Z,961.22
2016-12-19T08:30:00.099Z,961.21
2016-12-19T08:31:00.113Z,961.2
2016-12-19T08:32:00.128Z,961.22
2016-12-19T08:33:00.141Z,961.24
2016-12-19T08:34:00.155Z,961.21
2016-12-19T08:35:00.170Z,961.23
2016-12-19T08:36:00.183Z,961.23
2016-12-19T08:37:00.197Z,961.2
2016-12-19T08:38:00.211Z,961.15
2016-12-19T08:39:00.227Z,961.19
2016-12-19T08:40:00.238Z,961.19
2016-12-19T08:41:00.253Z,961.24
2016-12-19T08:42:00.267Z,961.21
2016-12-19T08:43:00.281Z,961.16
2016-12-19T08:44:00.294Z,961.21
2016-12-19T08:45:00.309Z,961.23
2016-12-19T08:46:00.322Z,961.25
2016-12-19T08:47:00.335Z,961.25
2016-12-19T08:48:00.349Z,961.29
2016-12-19T08:49:00.363Z,961.29
2016-12-19T08:50:00.377Z,961.22
2016-12-19T08:51:00.390Z,961.27
2016-12-19T08:52:00.403Z,961.29
2016-12-19T08:53:00.417Z,961.29
2016-12-19T08:54:00.446Z,961.32
2016-12-19T08:55:00.494Z,961.32
2016-12-19T08:56:00.458Z,961.33
2016-12-19T08:57:00.473Z,961.3
2016-12-19T08:58:00.485Z,961.35
2016-12-19T08:59:00.499Z,961.3
2016-12-19T09:00:00.513Z,961.31
2016-12-19T09:01:00.539Z,961.32
2016-12-19T09:02:00.540Z,961.35
2016-12-19T09:03:00.554Z,961.38
2016-12-19T09:04:00.568Z,961.35
2016-12-19T09:05:00.583Z,961.38
2016-12-19T09:06:00.596Z,961.35
2016-12-19T09:07:00.609Z,961.36
2016-12-19T09:08:00.634Z,961.39
2016-12-19T09:09:00.637Z,961.38
2016-12-19T09:10:00.651Z,961.4
2016-12-19T09:11:00.665Z,961.42
2016-12-19T09:12:00.678Z,961.41
2016-12-19T09:13:00.691Z,961.38
2016-12-19T09:14:00.706Z,961.39
2016-12-19T09:15:00.718Z,961.41
2016-12-19T09:16:00.733Z,961.39
2016-12-19T09:17:00.748Z,961.38
2016-12-19T09:18:00.760Z,961.38
2016-12-19T09:19:00.774Z,961.37
2016-12-19T09:20:00.787Z,961.39
2016-12-19T09:21:00.809Z,961.34
2016-12-19T09:22:00.816Z,961.35
2016-12-19T09:23:00.830Z,961.36
2016-12-19T09:24:00.842Z,961.37
2016-12-19T09:25:00.859Z,961.34
2016-12-19T09:26:00.873Z,961.33
2016-12-19T09:27:00.885Z,961.29
2016-12-19T09:28:00.899Z,961.3
2016-12-19T09:29:00.914Z,961.33
2016-12-19T09:30:00.937Z,961.32
2016-12-19T09:31:00.941Z,961.32
2016-12-19T09:32:00.955Z,961.3
2016-12-19T09:33:00.969Z,961.31
2016-12-19T09:34:00.984Z,961.34
2016-12-19T09:35:00.995Z,961.32
2016-12-19T09:36:01.011Z,961.34
2016-12-19T09:37:01.045Z,961.35
2016-12-19T09:38:01.038Z,961.32
2016-12-19T09:39:01.053Z,961.3
2016-12-19T09:40:01.065Z,961.3
2016-12-19T09:41:01.080Z,961.29
2016-12-19T09:42:01.094Z,961.25
2016-12-19T09:43:01.110Z,961.22
2016-12-19T09:44:01.126Z,961.25
2016-12-19T09:45:01.136Z,961.19
2016-12-19T09:46:01.150Z,961.17
2016-12-19T09:47:01.164Z,961.15
2016-12-19T09:48:01.179Z,961.16
2016-12-19T09:49:01.193Z,961.21
2016-12-19T09:50:01.207Z,961.21
2016-12-19T09:51:01.220Z,961.22
2016-12-19T09:52:01.235Z,961.24
2016-12-19T09:53:01.248Z,961.25
2016-12-19T09:54:01.262Z,961.19
2016-12-19T09:55:01.277Z,961.17
2016-12-19T09:56:01.292Z,961.14
2016-12-19T09:57:01.305Z,961.16
2016-12-19T09:58:01.318Z,961.24
2016-12-19T09:59:01.336Z,961.19
2016-12-19T10:00:01.346Z,961.2
2016-12-19T10:01:01.360Z,961.13
2016-12-19T10:02:01.374Z,961.14
2016-12-19T10:03:01.389Z,961.14
2016-12-19T10:04:01.402Z,961.13
2016-12-19T10:05:01.417Z,961.16
2016-12-19T10:06:01.431Z,961.17
2016-12-19T10:07:01.445Z,961.15
2016-12-19T10:08:01.458Z,961.17
2016-12-19T10:09:01.473Z,961.12
2016-12-19T10:10:01.488Z,961.04
2016-12-19T10:11:01.501Z,961.06
2016-12-19T10:12:01.514Z,961.05
2016-12-19T10:13:01.530Z,961.04
2016-12-19T10:14:01.543Z,961.03
2016-12-19T10:15:01.557Z,961.06
2016-12-19T10:16:01.571Z,960.99
2016-12-19T10:17:01.585Z,960.93
2016-12-19T10:18:01.599Z,960.92
2016-12-19T10:19:01.612Z,960.95
2016-12-19T10:20:01.627Z,961.01
2016-12-19T10:21:01.641Z,960.92
2016-12-19T10:22:01.655Z,960.99
2016-12-19T10:23:01.668Z,960.89
2016-12-19T10:24:01.681Z,960.95
2016-12-19T10:25:01.697Z,960.9
2016-12-19T10:26:01.710Z,960.91
2016-12-19T10:27:01.724Z,960.92
2016-12-19T10:28:01.751Z,960.91
2016-12-19T10:29:01.752Z,960.88
2016-12-19T10:30:01.766Z,960.86
2016-12-19T10:31:01.781Z,960.76
2016-12-19T10:32:01.794Z,960.78
2016-12-19T10:33:01.807Z,960.82
2016-12-19T10:34:01.820Z,960.84
2016-12-19T10:35:01.837Z,960.85
2016-12-19T10:36:01.850Z,960.87
2016-12-19T10:37:01.863Z,960.94
2016-12-19T10:38:01.878Z,960.97
2016-12-19T10:39:01.894Z,960.98
2016-12-19T10:40:01.906Z,960.94
2016-12-19T10:41:01.920Z,960.93
2016-12-19T10:42:01.940Z,960.95
2016-12-19T10:43:01.948Z,960.94
2016-12-19T10:44:01.961Z,960.91
2016-12-19T10:45:01.975Z,960.87
2016-12-19T10:46:01.989Z,960.9
2016-12-19T10:47:02.004Z,960.86
2016-12-19T10:48:02.017Z,960.89
2016-12-19T10:49:02.032Z,960.92
2016-12-19T10:50:02.045Z,960.91
2016-12-19T10:51:02.061Z,960.88
2016-12-19T10:52:02.073Z,960.85
2016-12-19T10:53:02.087Z,960.89
2016-12-19T10:54:02.102Z,960.91
2016-12-19T10:55:02.113Z,960.87
2016-12-19T10:56:02.129Z,960.93
2016-12-19T10:57:02.165Z,960.86
2016-12-19T10:58:02.158Z,960.85
2016-12-19T10:59:02.176Z,960.84
2016-12-19T11:00:02.185Z,960.77
2016-12-19T11:01:02.199Z,960.63
2016-12-19T11:02:02.213Z,960.6
2016-12-19T11:03:02.227Z,960.57
2016-12-19T11:04:02.241Z,960.57
2016-12-19T11:05:02.255Z,960.58
2016-12-19T11:06:02.268Z,960.6
2016-12-19T11:07:02.283Z,960.6
2016-12-19T11:08:02.297Z,960.62
2016-12-19T11:09:02.316Z,960.64
2016-12-19T11:10:02.327Z,960.7
2016-12-19T11:11:02.354Z,960.69
2016-12-19T11:12:02.354Z,960.69
2016-12-19T11:13:02.368Z,960.69
2016-12-19T11:14:02.381Z,960.67
2016-12-19T11:15:02.397Z,960.68
2016-12-19T11:16:02.409Z,960.68
2016-12-19T11:17:02.421Z,960.7
2016-12-19T11:18:02.436Z,960.71
2016-12-19T11:19:02.451Z,960.67
2016-12-19T11:20:02.464Z,960.64
2016-12-19T11:21:02.480Z,960.67
2016-12-19T11:22:02.492Z,960.63
2016-12-19T11:23:02.506Z,960.66
2016-12-19T11:24:02.521Z,960.67
2016-12-19T11:25:02.534Z,960.67
2016-12-19T11:26:02.590Z,960.66
2016-12-19T11:27:02.565Z,960.66
2016-12-19T11:28:02.585Z,960.61
2016-12-19T11:29:02.591Z,960.62
2016-12-19T11:30:02.615Z,960.64
2016-12-19T11:31:02.619Z,960.66
2016-12-19T11:32:02.633Z,960.68
2016-12-19T11:33:02.651Z,960.74
2016-12-19T11:34:02.661Z,960.7
2016-12-19T11:35:02.674Z,960.68
2016-12-19T11:36:02.689Z,960.71
2016-12-19T11:37:02.703Z,960.71
2016-12-19T11:38:02.718Z,960.67
2016-12-19T11:39:02.730Z,960.67
2016-12-19T11:40:02.747Z,960.67
2016-12-19T11:41:02.759Z,960.73
2016-12-19T11:42:02.773Z,960.69
2016-12-19T11:43:02.786Z,960.68
2016-12-19T11:44:02.804Z,960.62
2016-12-19T11:45:02.815Z,960.67
2016-12-19T11:46:02.828Z,960.69
2016-12-19T11:47:02.844Z,960.65
2016-12-19T11:48:02.857Z,960.61
2016-12-19T11:49:02.871Z,960.62
2016-12-19T11:50:02.883Z,960.61
2016-12-19T11:51:02.897Z,960.61
2016-12-19T11:52:02.913Z,960.6
2016-12-19T11:53:02.928Z,960.53
2016-12-19T11:54:02.940Z,960.54
2016-12-19T11:55:02.954Z,960.54
2016-12-19T11:56:02.967Z,960.52
2016-12-19T11:57:02.983Z,960.49
2016-12-19T11:58:02.998Z,960.51
2016-12-19T11:59:03.010Z,960.51
2016-12-19T12:00:03.030Z,960.53
2016-12-19T12:01:03.038Z,960.53
2016-12-19T12:02:03.058Z,960.52
2016-12-19T12:03:03.066Z,960.48
2016-12-19T12:04:03.080Z,960.48
2016-12-19T12:05:03.094Z,960.47
2016-12-19T12:06:03.109Z,960.41
2016-12-19T12:07:03.122Z,960.44
2016-12-19T12:08:03.134Z,960.41
2016-12-19T12:09:03.149Z,960.4
2016-12-19T12:10:03.164Z,960.42
2016-12-19T12:11:03.178Z,960.4
2016-12-19T12:12:03.192Z,960.4
2016-12-19T12:13:03.204Z,960.38
2016-12-19T12:14:03.221Z,960.38
2016-12-19T12:15:03.234Z,960.35
2016-12-19T12:16:03.249Z,960.34
2016-12-19T12:17:03.261Z,960.32
2016-12-19T12:18:03.275Z,960.33
2016-12-19T12:19:03.289Z,960.31
2016-12-19T12:20:03.303Z,960.31
2016-12-19T12:21:03.321Z,960.29
2016-12-19T12:22:03.332Z,960.29
2016-12-19T12:23:03.346Z,960.26
2016-12-19T12:24:03.360Z,960.27
2016-12-19T12:25:03.376Z,960.24
2016-12-19T12:26:03.388Z,960.18
2016-12-19T12:27:03.401Z,960.14
2016-12-19T12:28:03.416Z,960.11
2016-12-19T12:29:03.430Z,960.1
2016-12-19T12:30:03.443Z,960.17
2016-12-19T12:31:03.471Z,960.15
2016-12-19T12:32:03.472Z,960.22
2016-12-19T12:33:03.487Z,960.18